Terminal Aerodrome Forecast
Issued by NWS Shreveport, LA

Current Version | Previous Version | Text Only | Print | Product List | Glossary On
Versions: 1 2 3 4 5 6 7 8 9 10 11 12 13 14 15 16 17
000
FTUS44 KSHV 271723
TAFMLU
TAF
KMLU 271723Z 2718/2818 06006KT P6SM SCT050
     FM280100 VRB03KT P6SM SCT080
     FM280900 VRB03KT 4SM BR FEW005
     FM281200 VRB04KT P6SM SKC=

USA.gov is the U.S. government's official web portal to all federal, state and local government web resources and services.